sensor_id;sensor_type;location;lat;lon;timestamp;temperature;humidity
5429;DHT22;2737;52.386;9.980;2022-10-16T00:01:28;14.00;99.90
5429;DHT22;2737;52.386;9.980;2022-10-16T00:03:55;14.00;99.90
5429;DHT22;2737;52.386;9.980;2022-10-16T00:06:24;13.90;99.90
5429;DHT22;2737;52.386;9.980;2022-10-16T00:08:51;13.90;99.90
5429;DHT22;2737;52.386;9.980;2022-10-16T00:11:21;13.80;99.90
5429;DHT22;2737;52.386;9.980;2022-10-16T00:13:50;13.80;99.90
5429;DHT22;2737;52.386;9.980;2022-10-16T00:16:18;13.80;99.90
5429;DHT22;2737;52.386;9.980;2022-10-16T00:18:47;13.80;99.90
5429;DHT22;2737;52.386;9.980;2022-10-16T00:21:16;13.80;99.90
5429;DHT22;2737;52.386;9.980;2022-10-16T00:23:43;13.80;99.90
5429;DHT22;2737;52.386;9.980;2022-10-16T00:26:14;13.80;99.90
5429;DHT22;2737;52.386;9.980;2022-10-16T00:28:41;13.80;99.90
5429;DHT22;2737;52.386;9.980;2022-10-16T00:31:10;13.70;99.90
5429;DHT22;2737;52.386;9.980;2022-10-16T00:33:39;13.70;99.90
5429;DHT22;2737;52.386;9.980;2022-10-16T00:36:11;13.80;99.90
5429;DHT22;2737;52.386;9.980;2022-10-16T00:38:38;13.70;99.90
5429;DHT22;2737;52.386;9.980;2022-10-16T00:41:06;13.70;99.90
5429;DHT22;2737;52.386;9.980;2022-10-16T00:43:37;13.70;99.90
5429;DHT22;2737;52.386;9.980;2022-10-16T00:46:08;13.70;99.90
5429;DHT22;2737;52.386;9.980;2022-10-16T00:48:37;13.70;99.90
5429;DHT22;2737;52.386;9.980;2022-10-16T00:51:06;13.60;99.90
5429;DHT22;2737;52.386;9.980;2022-10-16T00:53:35;13.60;99.90
5429;DHT22;2737;52.386;9.980;2022-10-16T00:56:04;13.70;99.90
5429;DHT22;2737;52.386;9.980;2022-10-16T00:58:31;13.60;99.90
5429;DHT22;2737;52.386;9.980;2022-10-16T01:00:58;13.60;99.90
5429;DHT22;2737;52.386;9.980;2022-10-16T01:03:28;13.60;99.90
5429;DHT22;2737;52.386;9.980;2022-10-16T01:06:04;13.50;99.90
5429;DHT22;2737;52.386;9.980;2022-10-16T01:08:43;13.50;99.90
5429;DHT22;2737;52.386;9.980;2022-10-16T01:11:17;13.50;99.90
5429;DHT22;2737;52.386;9.980;2022-10-16T01:13:50;13.40;99.90
5429;DHT22;2737;52.386;9.980;2022-10-16T01:16:22;13.40;99.90
5429;DHT22;2737;52.386;9.980;2022-10-16T01:18:54;13.40;99.90
5429;DHT22;2737;52.386;9.980;2022-10-16T01:21:26;13.40;99.90
5429;DHT22;2737;52.386;9.980;2022-10-16T01:24:03;13.40;99.90
5429;DHT22;2737;52.386;9.980;2022-10-16T01:26:42;13.40;99.90
5429;DHT22;2737;52.386;9.980;2022-10-16T01:29:19;13.40;99.90
5429;DHT22;2737;52.386;9.980;2022-10-16T01:31:50;13.40;99.90
5429;DHT22;2737;52.386;9.980;2022-10-16T01:34:22;13.40;99.90
5429;DHT22;2737;52.386;9.980;2022-10-16T01:36:55;13.40;99.90
5429;DHT22;2737;52.386;9.980;2022-10-16T01:39:26;13.40;99.90
5429;DHT22;2737;52.386;9.980;2022-10-16T01:42:00;13.30;99.90
5429;DHT22;2737;52.386;9.980;2022-10-16T01:44:31;13.40;99.90
5429;DHT22;2737;52.386;9.980;2022-10-16T01:46:59;13.30;99.90
5429;DHT22;2737;52.386;9.980;2022-10-16T01:49:32;13.30;99.90
5429;DHT22;2737;52.386;9.980;2022-10-16T01:52:04;13.30;99.90
5429;DHT22;2737;52.386;9.980;2022-10-16T01:54:34;13.30;99.90
5429;DHT22;2737;52.386;9.980;2022-10-16T01:57:04;13.30;99.90
5429;DHT22;2737;52.386;9.980;2022-10-16T01:59:37;13.30;99.90
5429;DHT22;2737;52.386;9.980;2022-10-16T02:02:08;13.30;99.90
5429;DHT22;2737;52.386;9.980;2022-10-16T02:04:39;13.20;99.90
5429;DHT22;2737;52.386;9.980;2022-10-16T02:07:09;13.20;99.90
5429;DHT22;2737;52.386;9.980;2022-10-16T02:09:37;13.20;99.90
5429;DHT22;2737;52.386;9.980;2022-10-16T02:12:09;13.20;99.90
5429;DHT22;2737;52.386;9.980;2022-10-16T02:14:40;13.20;99.90
5429;DHT22;2737;52.386;9.980;2022-10-16T02:17:12;13.20;99.90
5429;DHT22;2737;52.386;9.980;2022-10-16T02:19:40;13.20;99.90
5429;DHT22;2737;52.386;9.980;2022-10-16T02:22:10;13.20;99.90
5429;DHT22;2737;52.386;9.980;2022-10-16T02:24:45;13.20;99.90
5429;DHT22;2737;52.386;9.980;2022-10-16T02:27:19;13.10;99.90
5429;DHT22;2737;52.386;9.980;2022-10-16T02:29:53;13.10;99.90
5429;DHT22;2737;52.386;9.980;2022-10-16T02:32:28;13.10;99.90
5429;DHT22;2737;52.386;9.980;2022-10-16T02:34:57;13.10;99.90
5429;DHT22;2737;52.386;9.980;2022-10-16T02:37:25;13.00;99.90
5429;DHT22;2737;52.386;9.980;2022-10-16T02:39:55;13.00;99.90
5429;DHT22;2737;52.386;9.980;2022-10-16T02:42:27;13.00;99.90
5429;DHT22;2737;52.386;9.980;2022-10-16T02:44:56;13.00;99.90
5429;DHT22;2737;52.386;9.980;2022-10-16T02:47:23;13.00;99.90
5429;DHT22;2737;52.386;9.980;2022-10-16T02:49:50;12.90;99.90
5429;DHT22;2737;52.386;9.980;2022-10-16T02:52:17;12.90;99.90
5429;DHT22;2737;52.386;9.980;2022-10-16T02:54:44;12.80;99.90
5429;DHT22;2737;52.386;9.980;2022-10-16T02:57:11;12.80;99.90
5429;DHT22;2737;52.386;9.980;2022-10-16T02:59:38;12.80;99.90
5429;DHT22;2737;52.386;9.980;2022-10-16T03:02:07;12.80;99.90
5429;DHT22;2737;52.386;9.980;2022-10-16T03:04:34;12.80;99.90
5429;DHT22;2737;52.386;9.980;2022-10-16T03:07:01;12.80;99.90
5429;DHT22;2737;52.386;9.980;2022-10-16T03:09:28;12.70;99.90
5429;DHT22;2737;52.386;9.980;2022-10-16T03:11:55;12.70;99.90
5429;DHT22;2737;52.386;9.980;2022-10-16T03:14:22;12.70;99.90
5429;DHT22;2737;52.386;9.980;2022-10-16T03:16:49;12.60;99.90
5429;DHT22;2737;52.386;9.980;2022-10-16T03:19:18;12.60;99.90
5429;DHT22;2737;52.386;9.980;2022-10-16T03:21:45;12.60;99.90
5429;DHT22;2737;52.386;9.980;2022-10-16T03:24:12;12.60;99.90
5429;DHT22;2737;52.386;9.980;2022-10-16T03:26:39;12.50;99.90
5429;DHT22;2737;52.386;9.980;2022-10-16T03:29:06;12.40;99.90
5429;DHT22;2737;52.386;9.980;2022-10-16T03:31:34;12.40;99.90
5429;DHT22;2737;52.386;9.980;2022-10-16T03:34:01;12.40;99.90
5429;DHT22;2737;52.386;9.980;2022-10-16T03:36:29;12.30;99.90
5429;DHT22;2737;52.386;9.980;2022-10-16T03:38:56;12.30;99.90
5429;DHT22;2737;52.386;9.980;2022-10-16T03:41:23;12.20;99.90
5429;DHT22;2737;52.386;9.980;2022-10-16T03:43:50;12.10;99.90
5429;DHT22;2737;52.386;9.980;2022-10-16T03:46:17;12.10;99.90
5429;DHT22;2737;52.386;9.980;2022-10-16T03:48:44;12.10;99.90
5429;DHT22;2737;52.386;9.980;2022-10-16T03:51:12;12.00;99.90
5429;DHT22;2737;52.386;9.980;2022-10-16T03:53:40;12.00;99.90
5429;DHT22;2737;52.386;9.980;2022-10-16T03:56:07;12.10;99.90
5429;DHT22;2737;52.386;9.980;2022-10-16T03:58:34;12.00;99.90
5429;DHT22;2737;52.386;9.980;2022-10-16T04:01:01;12.00;99.90
5429;DHT22;2737;52.386;9.980;2022-10-16T04:03:28;12.00;99.90
5429;DHT22;2737;52.386;9.980;2022-10-16T04:05:55;12.00;99.90
5429;DHT22;2737;52.386;9.980;2022-10-16T04:08:22;12.00;99.90
5429;DHT22;2737;52.386;9.980;2022-10-16T04:10:51;12.00;99.90
5429;DHT22;2737;52.386;9.980;2022-10-16T04:13:18;12.00;99.90
5429;DHT22;2737;52.386;9.980;2022-10-16T04:15:45;12.00;99.90
5429;DHT22;2737;52.386;9.980;2022-10-16T04:18:12;11.90;99.90
5429;DHT22;2737;52.386;9.980;2022-10-16T04:20:40;11.90;99.90
5429;DHT22;2737;52.386;9.980;2022-10-16T04:23:07;11.70;99.90
5429;DHT22;2737;52.386;9.980;2022-10-16T04:25:34;11.60;99.90
5429;DHT22;2737;52.386;9.980;2022-10-16T04:28:03;11.60;99.90
5429;DHT22;2737;52.386;9.980;2022-10-16T04:30:30;11.60;99.90
5429;DHT22;2737;52.386;9.980;2022-10-16T04:32:59;11.60;99.90
5429;DHT22;2737;52.386;9.980;2022-10-16T04:35:26;11.50;99.90
5429;DHT22;2737;52.386;9.980;2022-10-16T04:37:53;11.60;99.90
5429;DHT22;2737;52.386;9.980;2022-10-16T04:40:20;11.60;99.90
5429;DHT22;2737;52.386;9.980;2022-10-16T04:42:47;11.70;99.90
5429;DHT22;2737;52.386;9.980;2022-10-16T04:45:15;11.80;99.90
5429;DHT22;2737;52.386;9.980;2022-10-16T04:47:42;11.90;99.90
5429;DHT22;2737;52.386;9.980;2022-10-16T04:50:09;11.90;99.90
5429;DHT22;2737;52.386;9.980;2022-10-16T04:52:36;12.00;99.90
5429;DHT22;2737;52.386;9.980;2022-10-16T04:55:04;12.00;99.90
5429;DHT22;2737;52.386;9.980;2022-10-16T04:57:31;12.10;99.90
5429;DHT22;2737;52.386;9.980;2022-10-16T04:59:59;12.10;99.90
5429;DHT22;2737;52.386;9.980;2022-10-16T05:02:28;12.10;99.90
5429;DHT22;2737;52.386;9.980;2022-10-16T05:04:55;12.20;99.90
5429;DHT22;2737;52.386;9.980;2022-10-16T05:07:22;12.20;99.90
5429;DHT22;2737;52.386;9.980;2022-10-16T05:09:49;12.20;99.90
5429;DHT22;2737;52.386;9.980;2022-10-16T05:12:19;12.20;99.90
5429;DHT22;2737;52.386;9.980;2022-10-16T05:14:46;12.20;99.90
5429;DHT22;2737;52.386;9.980;2022-10-16T05:17:13;12.30;99.90
5429;DHT22;2737;52.386;9.980;2022-10-16T05:19:41;12.30;99.90
5429;DHT22;2737;52.386;9.980;2022-10-16T05:22:08;12.30;99.90
5429;DHT22;2737;52.386;9.980;2022-10-16T05:24:35;12.40;99.90
5429;DHT22;2737;52.386;9.980;2022-10-16T05:27:03;12.30;99.90
5429;DHT22;2737;52.386;9.980;2022-10-16T05:29:30;12.40;99.90
5429;DHT22;2737;52.386;9.980;2022-10-16T05:31:57;12.40;99.90
5429;DHT22;2737;52.386;9.980;2022-10-16T05:34:24;12.40;99.90
5429;DHT22;2737;52.386;9.980;2022-10-16T05:36:53;12.40;99.90
5429;DHT22;2737;52.386;9.980;2022-10-16T05:39:20;12.40;99.90
5429;DHT22;2737;52.386;9.980;2022-10-16T05:41:49;12.30;99.90
5429;DHT22;2737;52.386;9.980;2022-10-16T05:44:17;12.40;99.90
5429;DHT22;2737;52.386;9.980;2022-10-16T05:46:46;12.40;99.90
5429;DHT22;2737;52.386;9.980;2022-10-16T05:49:13;12.40;99.90
5429;DHT22;2737;52.386;9.980;2022-10-16T05:51:40;12.30;99.90
5429;DHT22;2737;52.386;9.980;2022-10-16T05:54:09;12.30;99.90
5429;DHT22;2737;52.386;9.980;2022-10-16T05:56:36;12.30;99.90
5429;DHT22;2737;52.386;9.980;2022-10-16T05:59:03;12.30;99.90
5429;DHT22;2737;52.386;9.980;2022-10-16T06:01:31;12.20;99.90
5429;DHT22;2737;52.386;9.980;2022-10-16T06:03:58;12.20;99.90
5429;DHT22;2737;52.386;9.980;2022-10-16T06:06:27;12.20;99.90
5429;DHT22;2737;52.386;9.980;2022-10-16T06:08:56;12.20;99.90
5429;DHT22;2737;52.386;9.980;2022-10-16T06:11:27;12.20;99.90
5429;DHT22;2737;52.386;9.980;2022-10-16T06:13:56;12.20;99.90
5429;DHT22;2737;52.386;9.980;2022-10-16T06:16:24;12.20;99.90
5429;DHT22;2737;52.386;9.980;2022-10-16T06:18:51;12.10;99.90
5429;DHT22;2737;52.386;9.980;2022-10-16T06:21:21;12.10;99.90
5429;DHT22;2737;52.386;9.980;2022-10-16T06:23:48;12.10;99.90
5429;DHT22;2737;52.386;9.980;2022-10-16T06:26:17;12.10;99.90
5429;DHT22;2737;52.386;9.980;2022-10-16T06:28:46;12.10;99.90
5429;DHT22;2737;52.386;9.980;2022-10-16T06:31:14;12.10;99.90
5429;DHT22;2737;52.386;9.980;2022-10-16T06:33:41;12.20;99.90
5429;DHT22;2737;52.386;9.980;2022-10-16T06:36:09;12.20;99.90
5429;DHT22;2737;52.386;9.980;2022-10-16T06:38:37;12.30;99.90
5429;DHT22;2737;52.386;9.980;2022-10-16T06:41:06;12.30;99.90
5429;DHT22;2737;52.386;9.980;2022-10-16T06:43:33;12.30;99.90
5429;DHT22;2737;52.386;9.980;2022-10-16T06:46:05;12.40;99.90
5429;DHT22;2737;52.386;9.980;2022-10-16T06:48:33;12.40;99.90
5429;DHT22;2737;52.386;9.980;2022-10-16T06:51:02;12.50;99.90
5429;DHT22;2737;52.386;9.980;2022-10-16T06:53:32;12.60;99.90
5429;DHT22;2737;52.386;9.980;2022-10-16T06:56:07;12.60;99.90
5429;DHT22;2737;52.386;9.980;2022-10-16T06:58:34;12.60;99.90
5429;DHT22;2737;52.386;9.980;2022-10-16T07:01:02;12.70;99.90
5429;DHT22;2737;52.386;9.980;2022-10-16T07:03:30;12.80;99.90
5429;DHT22;2737;52.386;9.980;2022-10-16T07:05:57;12.90;99.90
5429;DHT22;2737;52.386;9.980;2022-10-16T07:08:24;13.00;99.90
5429;DHT22;2737;52.386;9.980;2022-10-16T07:10:59;13.20;99.90
5429;DHT22;2737;52.386;9.980;2022-10-16T07:13:26;13.30;99.90
5429;DHT22;2737;52.386;9.980;2022-10-16T07:15:53;13.40;99.90
5429;DHT22;2737;52.386;9.980;2022-10-16T07:18:22;13.50;99.90
5429;DHT22;2737;52.386;9.980;2022-10-16T07:21:03;13.50;99.90
5429;DHT22;2737;52.386;9.980;2022-10-16T07:23:30;13.60;99.90
5429;DHT22;2737;52.386;9.980;2022-10-16T07:25:57;13.80;99.90
5429;DHT22;2737;52.386;9.980;2022-10-16T07:28:24;13.80;99.90
5429;DHT22;2737;52.386;9.980;2022-10-16T07:30:51;13.90;99.90
5429;DHT22;2737;52.386;9.980;2022-10-16T07:33:18;14.00;99.90
5429;DHT22;2737;52.386;9.980;2022-10-16T07:35:52;14.10;99.90
5429;DHT22;2737;52.386;9.980;2022-10-16T07:38:19;14.10;99.90
5429;DHT22;2737;52.386;9.980;2022-10-16T07:40:46;14.10;99.90
5429;DHT22;2737;52.386;9.980;2022-10-16T07:43:14;14.20;99.90
5429;DHT22;2737;52.386;9.980;2022-10-16T07:45:48;14.20;99.90
5429;DHT22;2737;52.386;9.980;2022-10-16T07:48:15;14.30;99.90
5429;DHT22;2737;52.386;9.980;2022-10-16T07:50:43;14.40;99.90
5429;DHT22;2737;52.386;9.980;2022-10-16T07:53:11;14.50;99.90
5429;DHT22;2737;52.386;9.980;2022-10-16T07:55:39;14.70;99.90
5429;DHT22;2737;52.386;9.980;2022-10-16T07:58:06;14.70;99.90
5429;DHT22;2737;52.386;9.980;2022-10-16T08:00:35;14.80;99.90
5429;DHT22;2737;52.386;9.980;2022-10-16T08:03:02;14.80;99.90
5429;DHT22;2737;52.386;9.980;2022-10-16T08:05:31;14.80;99.90
5429;DHT22;2737;52.386;9.980;2022-10-16T08:07:59;14.80;99.90
5429;DHT22;2737;52.386;9.980;2022-10-16T08:10:29;14.90;99.90
5429;DHT22;2737;52.386;9.980;2022-10-16T08:12:57;15.10;99.90
5429;DHT22;2737;52.386;9.980;2022-10-16T08:15:24;15.20;99.90
5429;DHT22;2737;52.386;9.980;2022-10-16T08:17:55;15.30;99.90
5429;DHT22;2737;52.386;9.980;2022-10-16T08:20:23;15.40;99.90
5429;DHT22;2737;52.386;9.980;2022-10-16T08:22:50;15.50;99.90
5429;DHT22;2737;52.386;9.980;2022-10-16T08:25:17;15.70;99.90
5429;DHT22;2737;52.386;9.980;2022-10-16T08:27:45;15.80;99.90
5429;DHT22;2737;52.386;9.980;2022-10-16T08:30:13;15.90;99.90
5429;DHT22;2737;52.386;9.980;2022-10-16T08:32:40;15.90;99.90
5429;DHT22;2737;52.386;9.980;2022-10-16T08:35:08;16.00;99.90
5429;DHT22;2737;52.386;9.980;2022-10-16T08:37:36;16.00;99.90
5429;DHT22;2737;52.386;9.980;2022-10-16T08:40:04;16.00;99.90
5429;DHT22;2737;52.386;9.980;2022-10-16T08:42:52;16.00;99.90
5429;DHT22;2737;52.386;9.980;2022-10-16T08:45:34;16.10;99.90
5429;DHT22;2737;52.386;9.980;2022-10-16T08:48:15;16.00;99.90
5429;DHT22;2737;52.386;9.980;2022-10-16T08:50:43;16.10;99.90
5429;DHT22;2737;52.386;9.980;2022-10-16T08:53:15;16.10;99.90
5429;DHT22;2737;52.386;9.980;2022-10-16T08:55:46;16.10;99.90
5429;DHT22;2737;52.386;9.980;2022-10-16T08:58:18;16.10;99.90
5429;DHT22;2737;52.386;9.980;2022-10-16T09:00:48;16.00;99.90
5429;DHT22;2737;52.386;9.980;2022-10-16T09:03:29;16.00;99.90
5429;DHT22;2737;52.386;9.980;2022-10-16T09:06:10;16.10;99.90
5429;DHT22;2737;52.386;9.980;2022-10-16T09:08:47;16.10;99.90
5429;DHT22;2737;52.386;9.980;2022-10-16T09:11:23;16.20;99.90
5429;DHT22;2737;52.386;9.980;2022-10-16T09:13:57;16.30;99.90
5429;DHT22;2737;52.386;9.980;2022-10-16T09:16:32;16.30;99.90
5429;DHT22;2737;52.386;9.980;2022-10-16T09:19:09;16.40;99.90
5429;DHT22;2737;52.386;9.980;2022-10-16T09:21:41;16.40;99.90
5429;DHT22;2737;52.386;9.980;2022-10-16T09:24:13;16.40;99.90
5429;DHT22;2737;52.386;9.980;2022-10-16T09:26:42;16.50;99.90
5429;DHT22;2737;52.386;9.980;2022-10-16T09:29:11;16.50;99.90
5429;DHT22;2737;52.386;9.980;2022-10-16T09:31:39;16.50;99.90
5429;DHT22;2737;52.386;9.980;2022-10-16T09:34:10;16.60;99.90
5429;DHT22;2737;52.386;9.980;2022-10-16T09:36:45;16.60;99.90
5429;DHT22;2737;52.386;9.980;2022-10-16T09:39:12;16.60;99.90
5429;DHT22;2737;52.386;9.980;2022-10-16T09:41:41;16.60;99.90
5429;DHT22;2737;52.386;9.980;2022-10-16T09:44:19;16.60;99.90
5429;DHT22;2737;52.386;9.980;2022-10-16T09:46:47;16.60;99.90
5429;DHT22;2737;52.386;9.980;2022-10-16T09:49:21;16.70;99.90
5429;DHT22;2737;52.386;9.980;2022-10-16T09:51:49;16.70;99.90
5429;DHT22;2737;52.386;9.980;2022-10-16T09:54:18;16.70;99.90
5429;DHT22;2737;52.386;9.980;2022-10-16T09:56:45;16.80;99.90
5429;DHT22;2737;52.386;9.980;2022-10-16T09:59:19;16.90;99.90
5429;DHT22;2737;52.386;9.980;2022-10-16T10:01:49;16.90;99.90
5429;DHT22;2737;52.386;9.980;2022-10-16T10:04:16;16.90;99.90
5429;DHT22;2737;52.386;9.980;2022-10-16T10:06:45;16.90;99.90
5429;DHT22;2737;52.386;9.980;2022-10-16T10:09:20;16.90;99.90
5429;DHT22;2737;52.386;9.980;2022-10-16T10:11:52;16.90;99.90
5429;DHT22;2737;52.386;9.980;2022-10-16T10:14:27;16.90;99.90
5429;DHT22;2737;52.386;9.980;2022-10-16T10:17:13;17.00;99.90
5429;DHT22;2737;52.386;9.980;2022-10-16T10:19:44;17.10;99.90
5429;DHT22;2737;52.386;9.980;2022-10-16T10:22:25;17.10;99.90
5429;DHT22;2737;52.386;9.980;2022-10-16T10:25:22;17.10;99.90
5429;DHT22;2737;52.386;9.980;2022-10-16T10:28:04;17.20;99.90
5429;DHT22;2737;52.386;9.980;2022-10-16T10:30:40;17.30;99.90
5429;DHT22;2737;52.386;9.980;2022-10-16T10:33:18;17.30;99.90
5429;DHT22;2737;52.386;9.980;2022-10-16T10:35:53;17.30;99.90
5429;DHT22;2737;52.386;9.980;2022-10-16T10:38:30;17.40;99.90
5429;DHT22;2737;52.386;9.980;2022-10-16T10:41:13;17.30;99.90
5429;DHT22;2737;52.386;9.980;2022-10-16T10:43:56;17.30;99.90
5429;DHT22;2737;52.386;9.980;2022-10-16T10:46:34;17.30;99.90
5429;DHT22;2737;52.386;9.980;2022-10-16T10:49:19;17.30;99.90
5429;DHT22;2737;52.386;9.980;2022-10-16T10:51:58;17.30;99.90
5429;DHT22;2737;52.386;9.980;2022-10-16T10:54:35;17.40;99.90
5429;DHT22;2737;52.386;9.980;2022-10-16T10:57:10;17.40;99.90
5429;DHT22;2737;52.386;9.980;2022-10-16T11:02:46;17.30;99.90
5429;DHT22;2737;52.386;9.980;2022-10-16T11:05:42;17.30;99.90
5429;DHT22;2737;52.386;9.980;2022-10-16T11:08:15;17.40;99.90
5429;DHT22;2737;52.386;9.980;2022-10-16T11:10:50;17.60;99.90
5429;DHT22;2737;52.386;9.980;2022-10-16T11:13:30;17.60;99.90
5429;DHT22;2737;52.386;9.980;2022-10-16T11:16:03;17.70;99.90
5429;DHT22;2737;52.386;9.980;2022-10-16T11:18:46;17.70;99.90
5429;DHT22;2737;52.386;9.980;2022-10-16T11:21:16;17.60;99.90
5429;DHT22;2737;52.386;9.980;2022-10-16T11:23:48;17.70;99.90
5429;DHT22;2737;52.386;9.980;2022-10-16T11:26:21;17.60;99.90
5429;DHT22;2737;52.386;9.980;2022-10-16T11:28:51;17.60;99.90
5429;DHT22;2737;52.386;9.980;2022-10-16T11:31:25;17.60;99.90
5429;DHT22;2737;52.386;9.980;2022-10-16T11:34:01;17.70;99.90
5429;DHT22;2737;52.386;9.980;2022-10-16T11:36:35;17.60;99.90
5429;DHT22;2737;52.386;9.980;2022-10-16T11:39:10;17.70;99.90
5429;DHT22;2737;52.386;9.980;2022-10-16T11:41:42;17.70;99.90
5429;DHT22;2737;52.386;9.980;2022-10-16T11:44:19;17.80;99.90
5429;DHT22;2737;52.386;9.980;2022-10-16T11:46:51;17.80;99.90
5429;DHT22;2737;52.386;9.980;2022-10-16T11:49:23;17.80;99.90
5429;DHT22;2737;52.386;9.980;2022-10-16T11:51:59;17.80;99.90
5429;DHT22;2737;52.386;9.980;2022-10-16T11:54:35;17.90;99.90
5429;DHT22;2737;52.386;9.980;2022-10-16T11:57:11;17.90;99.90
5429;DHT22;2737;52.386;9.980;2022-10-16T11:59:44;17.90;99.90
5429;DHT22;2737;52.386;9.980;2022-10-16T12:02:38;18.00;99.90
5429;DHT22;2737;52.386;9.980;2022-10-16T12:05:19;18.00;99.90
5429;DHT22;2737;52.386;9.980;2022-10-16T12:07:55;18.10;99.90
5429;DHT22;2737;52.386;9.980;2022-10-16T12:10:25;18.10;99.90
5429;DHT22;2737;52.386;9.980;2022-10-16T12:12:53;18.20;99.90
5429;DHT22;2737;52.386;9.980;2022-10-16T12:15:25;18.20;99.90
5429;DHT22;2737;52.386;9.980;2022-10-16T12:17:53;18.20;99.90
5429;DHT22;2737;52.386;9.980;2022-10-16T12:20:25;18.10;99.90
5429;DHT22;2737;52.386;9.980;2022-10-16T12:22:54;18.30;99.90
5429;DHT22;2737;52.386;9.980;2022-10-16T12:25:25;18.30;99.90
5429;DHT22;2737;52.386;9.980;2022-10-16T12:27:59;18.30;99.90
5429;DHT22;2737;52.386;9.980;2022-10-16T12:30:28;18.30;99.90
5429;DHT22;2737;52.386;9.980;2022-10-16T12:32:57;18.30;99.90
5429;DHT22;2737;52.386;9.980;2022-10-16T12:35:28;18.30;99.90
5429;DHT22;2737;52.386;9.980;2022-10-16T12:38:06;18.30;99.90
5429;DHT22;2737;52.386;9.980;2022-10-16T12:40:35;18.40;99.90
5429;DHT22;2737;52.386;9.980;2022-10-16T12:43:26;18.40;99.90
5429;DHT22;2737;52.386;9.980;2022-10-16T12:46:01;18.50;99.90
5429;DHT22;2737;52.386;9.980;2022-10-16T12:48:29;18.40;99.90
5429;DHT22;2737;52.386;9.980;2022-10-16T12:51:10;18.50;99.90
5429;DHT22;2737;52.386;9.980;2022-10-16T12:53:37;18.50;99.90
5429;DHT22;2737;52.386;9.980;2022-10-16T12:56:11;18.60;99.90
5429;DHT22;2737;52.386;9.980;2022-10-16T12:58:55;18.70;99.90
5429;DHT22;2737;52.386;9.980;2022-10-16T13:01:34;18.70;99.90
5429;DHT22;2737;52.386;9.980;2022-10-16T13:04:27;18.70;99.90
5429;DHT22;2737;52.386;9.980;2022-10-16T13:07:09;18.70;99.90
5429;DHT22;2737;52.386;9.980;2022-10-16T13:09:52;18.70;99.90
5429;DHT22;2737;52.386;9.980;2022-10-16T13:12:45;18.70;99.90
5429;DHT22;2737;52.386;9.980;2022-10-16T13:15:22;18.80;99.90
5429;DHT22;2737;52.386;9.980;2022-10-16T13:17:59;18.90;99.90
5429;DHT22;2737;52.386;9.980;2022-10-16T13:20:33;18.80;99.90
5429;DHT22;2737;52.386;9.980;2022-10-16T13:23:21;18.80;99.90
5429;DHT22;2737;52.386;9.980;2022-10-16T13:26:01;18.80;99.90
5429;DHT22;2737;52.386;9.980;2022-10-16T13:28:34;18.80;99.90
5429;DHT22;2737;52.386;9.980;2022-10-16T13:31:02;18.80;99.90
5429;DHT22;2737;52.386;9.980;2022-10-16T13:33:32;18.80;99.90
5429;DHT22;2737;52.386;9.980;2022-10-16T13:36:01;18.80;99.90
5429;DHT22;2737;52.386;9.980;2022-10-16T13:38:31;18.80;99.90
5429;DHT22;2737;52.386;9.980;2022-10-16T13:41:01;18.70;99.90
5429;DHT22;2737;52.386;9.980;2022-10-16T13:43:31;18.50;99.90
5429;DHT22;2737;52.386;9.980;2022-10-16T13:46:01;18.40;99.90
5429;DHT22;2737;52.386;9.980;2022-10-16T13:48:29;18.30;99.90
5429;DHT22;2737;52.386;9.980;2022-10-16T13:51:06;18.30;99.90
5429;DHT22;2737;52.386;9.980;2022-10-16T13:53:39;18.40;99.90
5429;DHT22;2737;52.386;9.980;2022-10-16T13:56:10;18.40;99.90
5429;DHT22;2737;52.386;9.980;2022-10-16T13:58:38;18.50;99.90
5429;DHT22;2737;52.386;9.980;2022-10-16T14:01:15;18.40;99.90
5429;DHT22;2737;52.386;9.980;2022-10-16T14:03:43;18.30;99.90
5429;DHT22;2737;52.386;9.980;2022-10-16T14:06:13;18.30;99.90
5429;DHT22;2737;52.386;9.980;2022-10-16T14:08:46;18.30;99.90
5429;DHT22;2737;52.386;9.980;2022-10-16T14:11:20;18.40;99.90
5429;DHT22;2737;52.386;9.980;2022-10-16T14:13:50;18.30;99.90
5429;DHT22;2737;52.386;9.980;2022-10-16T14:16:19;18.40;99.90
5429;DHT22;2737;52.386;9.980;2022-10-16T14:18:52;18.40;99.90
5429;DHT22;2737;52.386;9.980;2022-10-16T14:21:22;18.40;99.90
5429;DHT22;2737;52.386;9.980;2022-10-16T14:23:50;18.30;99.90
5429;DHT22;2737;52.386;9.980;2022-10-16T14:26:20;18.30;99.90
5429;DHT22;2737;52.386;9.980;2022-10-16T14:28:48;18.40;99.90
5429;DHT22;2737;52.386;9.980;2022-10-16T14:31:28;18.40;99.90
5429;DHT22;2737;52.386;9.980;2022-10-16T14:33:55;18.30;99.90
5429;DHT22;2737;52.386;9.980;2022-10-16T14:36:23;18.30;99.90
5429;DHT22;2737;52.386;9.980;2022-10-16T14:38:58;18.30;99.90
5429;DHT22;2737;52.386;9.980;2022-10-16T14:41:26;18.20;99.90
5429;DHT22;2737;52.386;9.980;2022-10-16T14:43:55;18.10;99.90
5429;DHT22;2737;52.386;9.980;2022-10-16T14:46:30;18.10;99.90
5429;DHT22;2737;52.386;9.980;2022-10-16T14:49:01;18.10;99.90
5429;DHT22;2737;52.386;9.980;2022-10-16T14:51:29;18.20;99.90
5429;DHT22;2737;52.386;9.980;2022-10-16T14:53:58;18.20;99.90
5429;DHT22;2737;52.386;9.980;2022-10-16T14:56:29;18.20;99.90
5429;DHT22;2737;52.386;9.980;2022-10-16T14:58:57;18.10;99.90
5429;DHT22;2737;52.386;9.980;2022-10-16T15:01:24;18.10;99.90
5429;DHT22;2737;52.386;9.980;2022-10-16T15:03:51;18.20;99.90
5429;DHT22;2737;52.386;9.980;2022-10-16T15:06:20;18.10;99.90
5429;DHT22;2737;52.386;9.980;2022-10-16T15:08:47;18.10;99.90
5429;DHT22;2737;52.386;9.980;2022-10-16T15:11:18;18.10;99.90
5429;DHT22;2737;52.386;9.980;2022-10-16T15:13:46;18.10;99.90
5429;DHT22;2737;52.386;9.980;2022-10-16T15:16:15;18.00;99.90
5429;DHT22;2737;52.386;9.980;2022-10-16T15:18:42;17.90;99.90
5429;DHT22;2737;52.386;9.980;2022-10-16T15:21:15;17.90;99.90
5429;DHT22;2737;52.386;9.980;2022-10-16T15:23:49;17.80;99.90
5429;DHT22;2737;52.386;9.980;2022-10-16T15:26:18;17.80;99.90
5429;DHT22;2737;52.386;9.980;2022-10-16T15:28:45;17.80;99.90
5429;DHT22;2737;52.386;9.980;2022-10-16T15:31:12;17.80;99.90
5429;DHT22;2737;52.386;9.980;2022-10-16T15:33:39;17.70;99.90
5429;DHT22;2737;52.386;9.980;2022-10-16T15:36:06;17.60;99.90
5429;DHT22;2737;52.386;9.980;2022-10-16T15:38:34;17.50;99.90
5429;DHT22;2737;52.386;9.980;2022-10-16T15:41:01;17.50;99.90
5429;DHT22;2737;52.386;9.980;2022-10-16T15:43:30;17.50;99.90
5429;DHT22;2737;52.386;9.980;2022-10-16T15:46:02;17.40;99.90
5429;DHT22;2737;52.386;9.980;2022-10-16T15:48:29;17.30;99.90
5429;DHT22;2737;52.386;9.980;2022-10-16T15:50:56;17.20;99.90
5429;DHT22;2737;52.386;9.980;2022-10-16T15:53:24;17.10;99.90
5429;DHT22;2737;52.386;9.980;2022-10-16T15:55:51;17.00;99.90
5429;DHT22;2737;52.386;9.980;2022-10-16T15:58:18;16.90;99.90
5429;DHT22;2737;52.386;9.980;2022-10-16T16:00:54;16.80;99.90
5429;DHT22;2737;52.386;9.980;2022-10-16T16:03:21;16.80;99.90
5429;DHT22;2737;52.386;9.980;2022-10-16T16:05:48;16.70;99.90
5429;DHT22;2737;52.386;9.980;2022-10-16T16:08:15;16.60;99.90
5429;DHT22;2737;52.386;9.980;2022-10-16T16:10:42;16.60;99.90
5429;DHT22;2737;52.386;9.980;2022-10-16T16:13:09;16.50;99.90
5429;DHT22;2737;52.386;9.980;2022-10-16T16:15:38;16.50;99.90
5429;DHT22;2737;52.386;9.980;2022-10-16T16:18:07;16.40;99.90
5429;DHT22;2737;52.386;9.980;2022-10-16T16:20:35;16.30;99.90
5429;DHT22;2737;52.386;9.980;2022-10-16T16:23:02;16.20;99.90
5429;DHT22;2737;52.386;9.980;2022-10-16T16:25:29;16.10;99.90
5429;DHT22;2737;52.386;9.980;2022-10-16T16:27:56;16.00;99.90